ANA478 ROAH-RJTT
Flight info
| Callsign | ANA478 |
|---|---|
| Flight time | 1h 55m |
| Altitude | 35000 |
| Route | AMAMI Y574 SHIBK Y57 SUKBO Y571 BILLY Y21 AKSEL |
| Aircraft | B772/H-SDE2E3FGILRWXY/LB2 |
Departure
| Time | 2026-04-16 12:58 |
|---|---|
| Airport | Naha International Airport (ROAH) |
Arrival
| Time | 2026-04-16 14:53 |
|---|---|
| Airport | Tokyo Haneda International Airport (RJTT) |
| Time | Latitude | Longitude | Altitude | Speed | Heading |
|---|---|---|---|---|---|
| 2026-04-16 12:22 | 26.20721 | 127.64852 | 25 ft | 0 kts | 47° |
| 2026-04-16 12:35 | 26.20719 | 127.64851 | 25 ft | 1 kts | 47° |
| 2026-04-16 12:36 | 26.20708 | 127.64837 | 30 ft | 3 kts | 47° |
| 2026-04-16 12:36 | 26.20695 | 127.64821 | 30 ft | 3 kts | 63° |
| 2026-04-16 12:36 | 26.20690 | 127.64801 | 29 ft | 3 kts | 91° |
| 2026-04-16 12:36 | 26.20689 | 127.64781 | 27 ft | 2 kts | 71° |
| 2026-04-16 12:37 | 26.20682 | 127.64761 | 27 ft | 3 kts | 51° |
| 2026-04-16 12:37 | 26.20668 | 127.64747 | 25 ft | 3 kts | 19° |
| 2026-04-16 12:37 | 26.20648 | 127.64743 | 25 ft | 3 kts | 359° |
| 2026-04-16 12:37 | 26.20629 | 127.64744 | 25 ft | 2 kts | 356° |
| 2026-04-16 12:38 | 26.20625 | 127.64745 | 24 ft | 1 kts | 358° |
| 2026-04-16 12:44 | 26.20631 | 127.64744 | 24 ft | 2 kts | 358° |
| 2026-04-16 12:45 | 26.20656 | 127.64744 | 22 ft | 5 kts | 358° |
| 2026-04-16 12:45 | 26.20699 | 127.64742 | 21 ft | 8 kts | 359° |
| 2026-04-16 12:45 | 26.20764 | 127.64739 | 21 ft | 11 kts | 357° |
| 2026-04-16 12:45 | 26.20839 | 127.64734 | 26 ft | 11 kts | 357° |
| 2026-04-16 12:46 | 26.20899 | 127.64694 | 22 ft | 11 kts | 294° |
| 2026-04-16 12:46 | 26.20901 | 127.64636 | 21 ft | 0 kts | 267° |
| 2026-04-16 12:56 | 26.20901 | 127.64618 | 22 ft | 5 kts | 267° |
| 2026-04-16 12:56 | 26.20896 | 127.64571 | 26 ft | 6 kts | 255° |
| 2026-04-16 12:56 | 26.20874 | 127.64530 | 26 ft | 6 kts | 227° |
| 2026-04-16 12:57 | 26.20832 | 127.64525 | 24 ft | 6 kts | 171° |
| 2026-04-16 12:57 | 26.20789 | 127.64531 | 24 ft | 6 kts | 177° |
| 2026-04-16 12:57 | 26.20586 | 127.64541 | 25 ft | 71 kts | 177° |
| 2026-04-16 12:57 | 26.19763 | 127.64603 | 28 ft | 162 kts | 176° |
| 2026-04-16 12:58 | 26.18573 | 127.64683 | 908 ft | 166 kts | 173° |
| 2026-04-16 12:58 | 26.17425 | 127.64740 | 2305 ft | 173 kts | 174° |
| 2026-04-16 12:58 | 26.16134 | 127.64802 | 2793 ft | 201 kts | 176° |
| 2026-04-16 12:58 | 26.14615 | 127.64870 | 3060 ft | 235 kts | 177° |
| 2026-04-16 12:59 | 26.12871 | 127.64945 | 3503 ft | 261 kts | 178° |
| 2026-04-16 12:59 | 26.11031 | 127.65024 | 4427 ft | 269 kts | 178° |
| 2026-04-16 12:59 | 26.09144 | 127.65106 | 5422 ft | 274 kts | 179° |
| 2026-04-16 13:00 | 26.05245 | 127.65291 | 7199 ft | 285 kts | 175° |
| 2026-04-16 13:00 | 26.03368 | 127.66086 | 7941 ft | 298 kts | 142° |
| 2026-04-16 13:00 | 26.02099 | 127.67892 | 8921 ft | 301 kts | 113° |
| 2026-04-16 13:00 | 26.01643 | 127.70170 | 9806 ft | 306 kts | 88° |
| 2026-04-16 13:01 | 26.01992 | 127.72515 | 10501 ft | 315 kts | 69° |
| 2026-04-16 13:01 | 26.03027 | 127.74759 | 10747 ft | 340 kts | 54° |
| 2026-04-16 13:01 | 26.04446 | 127.76931 | 11342 ft | 353 kts | 50° |
| 2026-04-16 13:01 | 26.05965 | 127.79116 | 12172 ft | 361 kts | 50° |
| 2026-04-16 13:02 | 26.07505 | 127.81352 | 13061 ft | 367 kts | 50° |
| 2026-04-16 13:02 | 26.09045 | 127.83641 | 13978 ft | 373 kts | 51° |
| 2026-04-16 13:02 | 26.10590 | 127.85984 | 14789 ft | 378 kts | 51° |
| 2026-04-16 13:02 | 26.12145 | 127.88372 | 15619 ft | 383 kts | 51° |
| 2026-04-16 13:03 | 26.13757 | 127.90751 | 16398 ft | 387 kts | 46° |
| 2026-04-16 13:03 | 26.15638 | 127.92899 | 17204 ft | 389 kts | 38° |
| 2026-04-16 13:03 | 26.17720 | 127.94847 | 17969 ft | 393 kts | 36° |
| 2026-04-16 13:03 | 26.19849 | 127.96797 | 18655 ft | 399 kts | 36° |
| 2026-04-16 13:04 | 26.21279 | 127.98102 | 19090 ft | 403 kts | 36° |
| 2026-04-16 13:04 | 26.23458 | 128.00097 | 19740 ft | 408 kts | 36° |
| 2026-04-16 13:04 | 26.26377 | 128.02785 | 20586 ft | 415 kts | 36° |
| 2026-04-16 13:04 | 26.28615 | 128.04857 | 21223 ft | 421 kts | 36° |
| 2026-04-16 13:05 | 26.30880 | 128.06961 | 21845 ft | 426 kts | 36° |
| 2026-04-16 13:05 | 26.33173 | 128.09096 | 22465 ft | 432 kts | 36° |
| 2026-04-16 13:05 | 26.34735 | 128.10551 | 22887 ft | 436 kts | 36° |
| 2026-04-16 13:05 | 26.37074 | 128.12733 | 23517 ft | 441 kts | 36° |
| 2026-04-16 13:06 | 26.39444 | 128.14946 | 24062 ft | 446 kts | 36° |
| 2026-04-16 13:06 | 26.41802 | 128.17149 | 24653 ft | 449 kts | 36° |
| 2026-04-16 13:06 | 26.44232 | 128.19422 | 25296 ft | 452 kts | 36° |
| 2026-04-16 13:06 | 26.46625 | 128.21644 | 25898 ft | 455 kts | 35° |
| 2026-04-16 13:07 | 26.49073 | 128.23901 | 26479 ft | 458 kts | 35° |
| 2026-04-16 13:07 | 26.51541 | 128.26172 | 27054 ft | 461 kts | 35° |
| 2026-04-16 13:07 | 26.54025 | 128.28459 | 27622 ft | 464 kts | 35° |
| 2026-04-16 13:07 | 26.56524 | 128.30764 | 28151 ft | 468 kts | 35° |
| 2026-04-16 13:08 | 26.59043 | 128.33091 | 28676 ft | 472 kts | 35° |
| 2026-04-16 13:08 | 26.61581 | 128.35439 | 29163 ft | 475 kts | 35° |
| 2026-04-16 13:08 | 26.64138 | 128.37807 | 29629 ft | 479 kts | 36° |
| 2026-04-16 13:08 | 26.66707 | 128.40189 | 30105 ft | 482 kts | 35° |
| 2026-04-16 13:09 | 26.69298 | 128.42593 | 30503 ft | 485 kts | 36° |
| 2026-04-16 13:09 | 26.71898 | 128.45007 | 30882 ft | 488 kts | 35° |
| 2026-04-16 13:09 | 26.74519 | 128.47442 | 31239 ft | 491 kts | 35° |
| 2026-04-16 13:09 | 26.77154 | 128.49890 | 31585 ft | 494 kts | 35° |
| 2026-04-16 13:10 | 26.79801 | 128.52353 | 31944 ft | 496 kts | 35° |
| 2026-04-16 13:10 | 26.82457 | 128.54825 | 32342 ft | 497 kts | 35° |
| 2026-04-16 13:10 | 26.85121 | 128.57307 | 32739 ft | 499 kts | 35° |
| 2026-04-16 13:10 | 26.87792 | 128.59795 | 33133 ft | 500 kts | 35° |
| 2026-04-16 13:11 | 26.90472 | 128.62294 | 33490 ft | 502 kts | 35° |
| 2026-04-16 13:11 | 26.93158 | 128.64800 | 33834 ft | 504 kts | 35° |
| 2026-04-16 13:11 | 26.95852 | 128.67315 | 34186 ft | 504 kts | 35° |
| 2026-04-16 13:11 | 26.98546 | 128.69831 | 34542 ft | 504 kts | 35° |
| 2026-04-16 13:12 | 27.01240 | 128.72350 | 34900 ft | 505 kts | 35° |
| 2026-04-16 13:12 | 27.03944 | 128.74879 | 35009 ft | 509 kts | 35° |
| 2026-04-16 13:12 | 27.06684 | 128.77440 | 35008 ft | 516 kts | 35° |
| 2026-04-16 13:13 | 27.12252 | 128.82651 | 35014 ft | 527 kts | 35° |
| 2026-04-16 13:13 | 27.17920 | 128.87968 | 35014 ft | 535 kts | 35° |
| 2026-04-16 13:14 | 27.23627 | 128.93331 | 35012 ft | 541 kts | 36° |
| 2026-04-16 13:14 | 27.29417 | 128.98781 | 35015 ft | 545 kts | 35° |
| 2026-04-16 13:15 | 27.35244 | 129.04272 | 35013 ft | 547 kts | 35° |
| 2026-04-16 13:15 | 27.41087 | 129.09786 | 35011 ft | 548 kts | 35° |
| 2026-04-16 13:16 | 27.46928 | 129.15305 | 35010 ft | 548 kts | 35° |
| 2026-04-16 13:16 | 27.52758 | 129.20821 | 35014 ft | 547 kts | 35° |
| 2026-04-16 13:17 | 27.58585 | 129.26342 | 35019 ft | 547 kts | 35° |
| 2026-04-16 13:17 | 27.64402 | 129.31862 | 35015 ft | 546 kts | 35° |
| 2026-04-16 13:18 | 27.70210 | 129.37380 | 35022 ft | 546 kts | 35° |
| 2026-04-16 13:18 | 27.76019 | 129.42907 | 35012 ft | 546 kts | 35° |
| 2026-04-16 13:19 | 27.81832 | 129.48447 | 35018 ft | 546 kts | 35° |
| 2026-04-16 13:19 | 27.87639 | 129.53988 | 35019 ft | 546 kts | 35° |
| 2026-04-16 13:20 | 27.93446 | 129.59538 | 35020 ft | 546 kts | 35° |
| 2026-04-16 13:20 | 27.99247 | 129.65090 | 35017 ft | 546 kts | 35° |
| 2026-04-16 13:21 | 28.05013 | 129.70617 | 35028 ft | 546 kts | 35° |
| 2026-04-16 13:21 | 28.10813 | 129.76184 | 35024 ft | 546 kts | 35° |
| 2026-04-16 13:22 | 28.16611 | 129.81758 | 35024 ft | 546 kts | 35° |
| 2026-04-16 13:22 | 28.22400 | 129.87331 | 35023 ft | 546 kts | 35° |
| 2026-04-16 13:23 | 28.28192 | 129.92916 | 35022 ft | 546 kts | 35° |
| 2026-04-16 13:23 | 28.33978 | 129.98503 | 35029 ft | 546 kts | 35° |
| 2026-04-16 13:24 | 28.39760 | 130.04096 | 35019 ft | 546 kts | 35° |
| 2026-04-16 13:24 | 28.45543 | 130.09697 | 35028 ft | 546 kts | 35° |
| 2026-04-16 13:25 | 28.51024 | 130.15716 | 35036 ft | 552 kts | 44° |
| 2026-04-16 13:25 | 28.55632 | 130.22752 | 35034 ft | 557 kts | 52° |
| 2026-04-16 13:26 | 28.59946 | 130.30083 | 35038 ft | 558 kts | 52° |
| 2026-04-16 13:26 | 28.64312 | 130.37400 | 35040 ft | 559 kts | 51° |
| 2026-04-16 13:27 | 28.68701 | 130.44661 | 35041 ft | 561 kts | 51° |
| 2026-04-16 13:27 | 28.73121 | 130.51989 | 35039 ft | 562 kts | 51° |
| 2026-04-16 13:28 | 28.77540 | 130.59333 | 35039 ft | 562 kts | 51° |
| 2026-04-16 13:28 | 28.81959 | 130.66682 | 35042 ft | 562 kts | 51° |
| 2026-04-16 13:29 | 28.86371 | 130.74034 | 35040 ft | 562 kts | 51° |
| 2026-04-16 13:29 | 28.90774 | 130.81386 | 35039 ft | 561 kts | 51° |
| 2026-04-16 13:30 | 28.95170 | 130.88739 | 35039 ft | 560 kts | 51° |
| 2026-04-16 13:30 | 28.99555 | 130.96088 | 35045 ft | 560 kts | 51° |
| 2026-04-16 13:31 | 29.03935 | 131.03440 | 35037 ft | 559 kts | 52° |
| 2026-04-16 13:31 | 29.08307 | 131.10791 | 35035 ft | 559 kts | 52° |
| 2026-04-16 13:32 | 29.12673 | 131.18145 | 35057 ft | 558 kts | 52° |
| 2026-04-16 13:32 | 29.17027 | 131.25493 | 35058 ft | 558 kts | 52° |
| 2026-04-16 13:33 | 29.21376 | 131.32847 | 35049 ft | 558 kts | 52° |
| 2026-04-16 13:33 | 29.25720 | 131.40203 | 35050 ft | 557 kts | 52° |
| 2026-04-16 13:34 | 29.30060 | 131.47568 | 35050 ft | 557 kts | 52° |
| 2026-04-16 13:34 | 29.34394 | 131.54934 | 35050 ft | 557 kts | 52° |
| 2026-04-16 13:35 | 29.38692 | 131.62251 | 35052 ft | 557 kts | 52° |
| 2026-04-16 13:35 | 29.43016 | 131.69630 | 35057 ft | 557 kts | 51° |
| 2026-04-16 13:36 | 29.47337 | 131.77017 | 35063 ft | 558 kts | 51° |
| 2026-04-16 13:36 | 29.51656 | 131.84418 | 35059 ft | 558 kts | 51° |
| 2026-04-16 13:37 | 29.55974 | 131.91828 | 35058 ft | 558 kts | 51° |
| 2026-04-16 13:37 | 29.60290 | 131.99250 | 35059 ft | 559 kts | 51° |
| 2026-04-16 13:38 | 29.64605 | 132.06676 | 35065 ft | 558 kts | 51° |
| 2026-04-16 13:38 | 29.69297 | 132.13725 | 35065 ft | 554 kts | 45° |
| 2026-04-16 13:39 | 29.74225 | 132.20532 | 35065 ft | 554 kts | 44° |
| 2026-04-16 13:39 | 29.79154 | 132.27349 | 35069 ft | 554 kts | 45° |
| 2026-04-16 13:40 | 29.84051 | 132.34211 | 35071 ft | 555 kts | 45° |
| 2026-04-16 13:40 | 29.88931 | 132.41098 | 35070 ft | 554 kts | 45° |
| 2026-04-16 13:41 | 29.93805 | 132.47990 | 35072 ft | 554 kts | 45° |
| 2026-04-16 13:41 | 29.98672 | 132.54876 | 35074 ft | 554 kts | 45° |
| 2026-04-16 13:42 | 30.03538 | 132.61769 | 35076 ft | 554 kts | 45° |
| 2026-04-16 13:42 | 30.08400 | 132.68668 | 35078 ft | 554 kts | 45° |
| 2026-04-16 13:43 | 30.13262 | 132.75580 | 35082 ft | 554 kts | 44° |
| 2026-04-16 13:43 | 30.18085 | 132.82449 | 35085 ft | 554 kts | 44° |
| 2026-04-16 13:44 | 30.22938 | 132.89371 | 35082 ft | 554 kts | 44° |
| 2026-04-16 13:44 | 30.27787 | 132.96301 | 35087 ft | 554 kts | 44° |
| 2026-04-16 13:45 | 30.32633 | 133.03239 | 35089 ft | 554 kts | 44° |
| 2026-04-16 13:45 | 30.37476 | 133.10184 | 35090 ft | 554 kts | 44° |
| 2026-04-16 13:46 | 30.42320 | 133.17141 | 35091 ft | 555 kts | 44° |
| 2026-04-16 13:46 | 30.47159 | 133.24105 | 35091 ft | 555 kts | 44° |
| 2026-04-16 13:47 | 30.51997 | 133.31080 | 35095 ft | 555 kts | 44° |
| 2026-04-16 13:47 | 30.56833 | 133.38065 | 35094 ft | 555 kts | 44° |
| 2026-04-16 13:48 | 30.61670 | 133.45063 | 35098 ft | 555 kts | 44° |
| 2026-04-16 13:48 | 30.66494 | 133.52055 | 35097 ft | 555 kts | 44° |
| 2026-04-16 13:49 | 30.71314 | 133.59054 | 35101 ft | 555 kts | 44° |
| 2026-04-16 13:49 | 30.76142 | 133.66077 | 35094 ft | 555 kts | 44° |
| 2026-04-16 13:50 | 30.80957 | 133.73093 | 35094 ft | 555 kts | 44° |
| 2026-04-16 13:50 | 30.85773 | 133.80117 | 35104 ft | 555 kts | 44° |
| 2026-04-16 13:51 | 30.90582 | 133.87142 | 35103 ft | 555 kts | 44° |
| 2026-04-16 13:51 | 30.94578 | 133.92991 | 35105 ft | 555 kts | 44° |
| 2026-04-16 13:52 | 31.00163 | 134.01180 | 35108 ft | 555 kts | 44° |
| 2026-04-16 13:52 | 31.04183 | 134.07086 | 35106 ft | 555 kts | 44° |
| 2026-04-16 13:53 | 31.09751 | 134.15280 | 35104 ft | 555 kts | 44° |
| 2026-04-16 13:53 | 31.13763 | 134.21196 | 35112 ft | 555 kts | 44° |
| 2026-04-16 13:54 | 31.18547 | 134.28262 | 35109 ft | 554 kts | 44° |
| 2026-04-16 13:54 | 31.23328 | 134.35335 | 35116 ft | 554 kts | 44° |
| 2026-04-16 13:55 | 31.28097 | 134.42405 | 35114 ft | 554 kts | 44° |
| 2026-04-16 13:55 | 31.32862 | 134.49480 | 35113 ft | 553 kts | 44° |
| 2026-04-16 13:56 | 31.37619 | 134.56558 | 35114 ft | 553 kts | 44° |
| 2026-04-16 13:56 | 31.42337 | 134.63589 | 35115 ft | 553 kts | 44° |
| 2026-04-16 13:57 | 31.47078 | 134.70668 | 35124 ft | 552 kts | 44° |
| 2026-04-16 13:57 | 31.51817 | 134.77756 | 35125 ft | 552 kts | 44° |
| 2026-04-16 13:58 | 31.58907 | 134.88387 | 35120 ft | 552 kts | 44° |
| 2026-04-16 13:58 | 31.63626 | 134.95480 | 35121 ft | 551 kts | 44° |
| 2026-04-16 13:59 | 31.68340 | 135.02578 | 35123 ft | 551 kts | 44° |
| 2026-04-16 13:59 | 31.73113 | 135.09591 | 35123 ft | 546 kts | 41° |
| 2026-04-16 14:00 | 31.78172 | 135.16212 | 35121 ft | 544 kts | 39° |
| 2026-04-16 14:00 | 31.83284 | 135.22764 | 35124 ft | 544 kts | 39° |
| 2026-04-16 14:01 | 31.88374 | 135.29353 | 35130 ft | 544 kts | 40° |
| 2026-04-16 14:01 | 31.93440 | 135.35976 | 35128 ft | 544 kts | 40° |
| 2026-04-16 14:02 | 31.98498 | 135.42615 | 35130 ft | 544 kts | 40° |
| 2026-04-16 14:02 | 32.03517 | 135.49208 | 35133 ft | 544 kts | 40° |
| 2026-04-16 14:03 | 32.08568 | 135.55849 | 35131 ft | 544 kts | 40° |
| 2026-04-16 14:03 | 32.13605 | 135.62484 | 35135 ft | 543 kts | 39° |
| 2026-04-16 14:04 | 32.18644 | 135.69134 | 35136 ft | 543 kts | 39° |
| 2026-04-16 14:04 | 32.23677 | 135.75789 | 35130 ft | 543 kts | 39° |
| 2026-04-16 14:05 | 32.28699 | 135.82439 | 35134 ft | 542 kts | 39° |
| 2026-04-16 14:05 | 32.33713 | 135.89094 | 35134 ft | 542 kts | 39° |
| 2026-04-16 14:06 | 32.38718 | 135.95748 | 35136 ft | 541 kts | 39° |
| 2026-04-16 14:06 | 32.43720 | 136.02406 | 35133 ft | 541 kts | 39° |
| 2026-04-16 14:07 | 32.48715 | 136.09061 | 35139 ft | 540 kts | 39° |
| 2026-04-16 14:07 | 32.53706 | 136.15719 | 35136 ft | 540 kts | 39° |
| 2026-04-16 14:08 | 32.58689 | 136.22379 | 35139 ft | 540 kts | 39° |
| 2026-04-16 14:08 | 32.63671 | 136.29052 | 35141 ft | 540 kts | 39° |
| 2026-04-16 14:09 | 32.68642 | 136.35723 | 35146 ft | 540 kts | 39° |
| 2026-04-16 14:09 | 32.73612 | 136.42404 | 35148 ft | 540 kts | 39° |
| 2026-04-16 14:10 | 32.78577 | 136.49092 | 35148 ft | 539 kts | 39° |
| 2026-04-16 14:10 | 32.83532 | 136.55778 | 35148 ft | 539 kts | 39° |
| 2026-04-16 14:11 | 32.88484 | 136.62472 | 35148 ft | 538 kts | 39° |
| 2026-04-16 14:11 | 32.93391 | 136.69115 | 35148 ft | 538 kts | 39° |
| 2026-04-16 14:12 | 32.98327 | 136.75799 | 35146 ft | 537 kts | 39° |
| 2026-04-16 14:12 | 33.03262 | 136.82494 | 35150 ft | 537 kts | 39° |
| 2026-04-16 14:13 | 33.08182 | 136.89185 | 35154 ft | 537 kts | 39° |
| 2026-04-16 14:13 | 33.13099 | 136.95884 | 35158 ft | 536 kts | 39° |
| 2026-04-16 14:14 | 33.18004 | 137.02580 | 35156 ft | 536 kts | 39° |
| 2026-04-16 14:14 | 33.22912 | 137.09290 | 35159 ft | 536 kts | 39° |
| 2026-04-16 14:15 | 33.27809 | 137.15999 | 35160 ft | 536 kts | 39° |
| 2026-04-16 14:15 | 33.32699 | 137.22713 | 35156 ft | 535 kts | 39° |
| 2026-04-16 14:16 | 33.37586 | 137.29435 | 35157 ft | 535 kts | 39° |
| 2026-04-16 14:16 | 33.42465 | 137.36160 | 35156 ft | 535 kts | 39° |
| 2026-04-16 14:17 | 33.47345 | 137.42898 | 35153 ft | 535 kts | 39° |
| 2026-04-16 14:17 | 33.52219 | 137.49642 | 35158 ft | 535 kts | 39° |
| 2026-04-16 14:18 | 33.57056 | 137.56346 | 35165 ft | 535 kts | 39° |
| 2026-04-16 14:18 | 33.61727 | 137.63358 | 35160 ft | 545 kts | 46° |
| 2026-04-16 14:19 | 33.65565 | 137.71329 | 35163 ft | 554 kts | 52° |
| 2026-04-16 14:19 | 33.69190 | 137.79495 | 35160 ft | 554 kts | 52° |
| 2026-04-16 14:20 | 33.72851 | 137.87633 | 35161 ft | 553 kts | 52° |
| 2026-04-16 14:20 | 33.76546 | 137.95735 | 35158 ft | 552 kts | 52° |
| 2026-04-16 14:21 | 33.80237 | 138.03827 | 35163 ft | 552 kts | 52° |
| 2026-04-16 14:21 | 33.83919 | 138.11935 | 35163 ft | 552 kts | 52° |
| 2026-04-16 14:22 | 33.87566 | 138.19996 | 35159 ft | 552 kts | 52° |
| 2026-04-16 14:22 | 33.91231 | 138.28107 | 35163 ft | 550 kts | 52° |
| 2026-04-16 14:23 | 33.93032 | 138.32129 | 34986 ft | 543 kts | 52° |
| 2026-04-16 14:23 | 33.94787 | 138.36087 | 34929 ft | 528 kts | 52° |
| 2026-04-16 14:23 | 33.96483 | 138.39934 | 34851 ft | 511 kts | 52° |
| 2026-04-16 14:23 | 33.98127 | 138.43659 | 34782 ft | 497 kts | 52° |
| 2026-04-16 14:24 | 33.99730 | 138.47283 | 34709 ft | 483 kts | 51° |
| 2026-04-16 14:24 | 34.01296 | 138.50816 | 34600 ft | 472 kts | 51° |
| 2026-04-16 14:24 | 34.02828 | 138.54265 | 34411 ft | 463 kts | 51° |
| 2026-04-16 14:24 | 34.04341 | 138.57664 | 34124 ft | 458 kts | 51° |
| 2026-04-16 14:25 | 34.05844 | 138.61042 | 33697 ft | 455 kts | 51° |
| 2026-04-16 14:25 | 34.07337 | 138.64400 | 33234 ft | 453 kts | 51° |
| 2026-04-16 14:25 | 34.08818 | 138.67743 | 32820 ft | 450 kts | 51° |
| 2026-04-16 14:25 | 34.10265 | 138.71018 | 32453 ft | 447 kts | 52° |
| 2026-04-16 14:26 | 34.11719 | 138.74319 | 32093 ft | 443 kts | 52° |
| 2026-04-16 14:26 | 34.13160 | 138.77593 | 31741 ft | 440 kts | 52° |
| 2026-04-16 14:26 | 34.14588 | 138.80840 | 31397 ft | 437 kts | 52° |
| 2026-04-16 14:26 | 34.16007 | 138.84068 | 31055 ft | 434 kts | 52° |
| 2026-04-16 14:27 | 34.17415 | 138.87273 | 30722 ft | 431 kts | 52° |
| 2026-04-16 14:27 | 34.18813 | 138.90456 | 30400 ft | 428 kts | 52° |
| 2026-04-16 14:27 | 34.20199 | 138.93618 | 30061 ft | 425 kts | 52° |
| 2026-04-16 14:27 | 34.21574 | 138.96760 | 29696 ft | 421 kts | 53° |
| 2026-04-16 14:28 | 34.22939 | 138.99881 | 29358 ft | 418 kts | 53° |
| 2026-04-16 14:28 | 34.24293 | 139.02979 | 29018 ft | 415 kts | 53° |
| 2026-04-16 14:28 | 34.25629 | 139.06038 | 28645 ft | 410 kts | 53° |
| 2026-04-16 14:28 | 34.26955 | 139.09075 | 28250 ft | 407 kts | 53° |
| 2026-04-16 14:29 | 34.28269 | 139.12101 | 27758 ft | 408 kts | 54° |
| 2026-04-16 14:29 | 34.29452 | 139.15233 | 27239 ft | 411 kts | 58° |
| 2026-04-16 14:29 | 34.30561 | 139.18425 | 26762 ft | 411 kts | 59° |
| 2026-04-16 14:29 | 34.31648 | 139.21619 | 26279 ft | 411 kts | 59° |
| 2026-04-16 14:30 | 34.32730 | 139.24810 | 25803 ft | 410 kts | 59° |
| 2026-04-16 14:30 | 34.33816 | 139.27999 | 25335 ft | 409 kts | 59° |
| 2026-04-16 14:30 | 34.34902 | 139.31175 | 24834 ft | 409 kts | 59° |
| 2026-04-16 14:30 | 34.35991 | 139.34348 | 24343 ft | 409 kts | 59° |
| 2026-04-16 14:31 | 34.37084 | 139.37527 | 23850 ft | 409 kts | 60° |
| 2026-04-16 14:31 | 34.38177 | 139.40709 | 23286 ft | 409 kts | 60° |
| 2026-04-16 14:31 | 34.39266 | 139.43882 | 22713 ft | 408 kts | 60° |
| 2026-04-16 14:31 | 34.40352 | 139.47051 | 22152 ft | 407 kts | 60° |
| 2026-04-16 14:32 | 34.41434 | 139.50212 | 21605 ft | 406 kts | 60° |
| 2026-04-16 14:32 | 34.42511 | 139.53362 | 21046 ft | 404 kts | 60° |
| 2026-04-16 14:32 | 34.43581 | 139.56495 | 20522 ft | 402 kts | 60° |
| 2026-04-16 14:32 | 34.44648 | 139.59618 | 19951 ft | 400 kts | 60° |
| 2026-04-16 14:33 | 34.45709 | 139.62727 | 19364 ft | 399 kts | 61° |
| 2026-04-16 14:33 | 34.46767 | 139.65831 | 18795 ft | 398 kts | 61° |
| 2026-04-16 14:33 | 34.47872 | 139.68869 | 18178 ft | 388 kts | 55° |
| 2026-04-16 14:33 | 34.49405 | 139.71488 | 17529 ft | 376 kts | 43° |
| 2026-04-16 14:34 | 34.51288 | 139.73638 | 16897 ft | 368 kts | 33° |
| 2026-04-16 14:34 | 34.53375 | 139.75274 | 16451 ft | 356 kts | 27° |
| 2026-04-16 14:34 | 34.55472 | 139.76770 | 16252 ft | 344 kts | 27° |
| 2026-04-16 14:34 | 34.57491 | 139.78222 | 16128 ft | 331 kts | 27° |
| 2026-04-16 14:35 | 34.59446 | 139.79638 | 15808 ft | 324 kts | 27° |
| 2026-04-16 14:35 | 34.61360 | 139.81035 | 15497 ft | 318 kts | 28° |
| 2026-04-16 14:35 | 34.63238 | 139.82412 | 15182 ft | 312 kts | 28° |
| 2026-04-16 14:35 | 34.65077 | 139.83766 | 14870 ft | 307 kts | 28° |
| 2026-04-16 14:36 | 34.66885 | 139.85083 | 14547 ft | 297 kts | 26° |
| 2026-04-16 14:36 | 34.68789 | 139.85928 | 14237 ft | 289 kts | 11° |
| 2026-04-16 14:36 | 34.70766 | 139.86259 | 13939 ft | 284 kts | 7° |
| 2026-04-16 14:36 | 34.72712 | 139.86514 | 13602 ft | 279 kts | 7° |
| 2026-04-16 14:37 | 34.74629 | 139.86761 | 13261 ft | 275 kts | 7° |
| 2026-04-16 14:37 | 34.76517 | 139.87010 | 12952 ft | 270 kts | 8° |
| 2026-04-16 14:37 | 34.78374 | 139.87261 | 12641 ft | 266 kts | 8° |
| 2026-04-16 14:37 | 34.80203 | 139.87512 | 12333 ft | 263 kts | 8° |
| 2026-04-16 14:38 | 34.82020 | 139.87765 | 12064 ft | 262 kts | 9° |
| 2026-04-16 14:38 | 34.83829 | 139.88019 | 11815 ft | 261 kts | 9° |
| 2026-04-16 14:38 | 34.85626 | 139.88273 | 11571 ft | 260 kts | 9° |
| 2026-04-16 14:38 | 34.87409 | 139.88525 | 11328 ft | 260 kts | 9° |
| 2026-04-16 14:39 | 34.89207 | 139.88780 | 11086 ft | 259 kts | 9° |
| 2026-04-16 14:39 | 34.90981 | 139.89031 | 10841 ft | 254 kts | 9° |
| 2026-04-16 14:39 | 34.92725 | 139.89278 | 10564 ft | 251 kts | 10° |
| 2026-04-16 14:39 | 34.94451 | 139.89483 | 10261 ft | 247 kts | 4° |
| 2026-04-16 14:40 | 34.96165 | 139.89147 | 9975 ft | 252 kts | 351° |
| 2026-04-16 14:40 | 34.97284 | 139.88783 | 9771 ft | 251 kts | 351° |
| 2026-04-16 14:40 | 34.98973 | 139.88233 | 9411 ft | 252 kts | 351° |
| 2026-04-16 14:40 | 35.00669 | 139.87683 | 9058 ft | 253 kts | 351° |
| 2026-04-16 14:41 | 35.02936 | 139.86955 | 8481 ft | 257 kts | 351° |
| 2026-04-16 14:41 | 35.04112 | 139.86580 | 8149 ft | 260 kts | 351° |
| 2026-04-16 14:41 | 35.06458 | 139.85834 | 7506 ft | 265 kts | 351° |
| 2026-04-16 14:41 | 35.07672 | 139.85448 | 7177 ft | 268 kts | 351° |
| 2026-04-16 14:42 | 35.09488 | 139.84872 | 6714 ft | 271 kts | 351° |
| 2026-04-16 14:42 | 35.11304 | 139.84296 | 6224 ft | 275 kts | 350° |
| 2026-04-16 14:42 | 35.13160 | 139.83707 | 5789 ft | 275 kts | 349° |
| 2026-04-16 14:42 | 35.15031 | 139.83113 | 5407 ft | 269 kts | 349° |
| 2026-04-16 14:43 | 35.16732 | 139.82568 | 5013 ft | 245 kts | 349° |
| 2026-04-16 14:43 | 35.18314 | 139.82063 | 4607 ft | 230 kts | 349° |
| 2026-04-16 14:43 | 35.19874 | 139.81570 | 4242 ft | 233 kts | 349° |
| 2026-04-16 14:43 | 35.21438 | 139.81075 | 3994 ft | 229 kts | 349° |
| 2026-04-16 14:44 | 35.22969 | 139.80589 | 3905 ft | 228 kts | 349° |
| 2026-04-16 14:44 | 35.24511 | 139.80101 | 3608 ft | 228 kts | 350° |
| 2026-04-16 14:44 | 35.25994 | 139.79630 | 3306 ft | 227 kts | 350° |
| 2026-04-16 14:44 | 35.27508 | 139.79146 | 2980 ft | 217 kts | 351° |
| 2026-04-16 14:45 | 35.28911 | 139.78693 | 2649 ft | 201 kts | 352° |
| 2026-04-16 14:45 | 35.30218 | 139.78275 | 2313 ft | 190 kts | 353° |
| 2026-04-16 14:45 | 35.31479 | 139.78173 | 1963 ft | 178 kts | 17° |
| 2026-04-16 14:45 | 35.32597 | 139.78733 | 1685 ft | 173 kts | 34° |
| 2026-04-16 14:46 | 35.33565 | 139.79575 | 1571 ft | 169 kts | 37° |
| 2026-04-16 14:46 | 35.34502 | 139.80427 | 1543 ft | 166 kts | 37° |
| 2026-04-16 14:46 | 35.35423 | 139.81264 | 1517 ft | 165 kts | 37° |
| 2026-04-16 14:46 | 35.36348 | 139.82104 | 1501 ft | 165 kts | 38° |
| 2026-04-16 14:47 | 35.37264 | 139.82934 | 1497 ft | 161 kts | 38° |
| 2026-04-16 14:47 | 35.38147 | 139.83734 | 1507 ft | 155 kts | 38° |
| 2026-04-16 14:47 | 35.38998 | 139.84504 | 1499 ft | 154 kts | 38° |
| 2026-04-16 14:47 | 35.39820 | 139.85247 | 1481 ft | 138 kts | 38° |
| 2026-04-16 14:48 | 35.40551 | 139.85907 | 1474 ft | 124 kts | 38° |
| 2026-04-16 14:48 | 35.41228 | 139.86522 | 1483 ft | 119 kts | 38° |
| 2026-04-16 14:48 | 35.41998 | 139.86845 | 1487 ft | 127 kts | 1° |
| 2026-04-16 14:48 | 35.42904 | 139.86739 | 1496 ft | 134 kts | 7° |
| 2026-04-16 14:49 | 35.43838 | 139.86759 | 1506 ft | 134 kts | 8° |
| 2026-04-16 14:49 | 35.44749 | 139.86656 | 1484 ft | 133 kts | 348° |
| 2026-04-16 14:49 | 35.45621 | 139.86173 | 1509 ft | 141 kts | 345° |
| 2026-04-16 14:49 | 35.46507 | 139.85692 | 1513 ft | 136 kts | 345° |
| 2026-04-16 14:50 | 35.47359 | 139.85183 | 1509 ft | 139 kts | 342° |
| 2026-04-16 14:50 | 35.48216 | 139.84599 | 1457 ft | 144 kts | 340° |
| 2026-04-16 14:50 | 35.49086 | 139.83983 | 1238 ft | 144 kts | 339° |
| 2026-04-16 14:50 | 35.49935 | 139.83379 | 1038 ft | 139 kts | 337° |
| 2026-04-16 14:51 | 35.50776 | 139.82782 | 849 ft | 140 kts | 337° |
| 2026-04-16 14:51 | 35.51617 | 139.82184 | 654 ft | 140 kts | 336° |
| 2026-04-16 14:51 | 35.52459 | 139.81585 | 473 ft | 139 kts | 335° |
| 2026-04-16 14:51 | 35.53290 | 139.80993 | 300 ft | 138 kts | 335° |
| 2026-04-16 14:53 | 35.56123 | 139.78895 | 28 ft | 9 kts | 302° |
| 2026-04-16 14:53 | 35.56145 | 139.78822 | 27 ft | 9 kts | 274° |
| 2026-04-16 14:54 | 35.56118 | 139.78750 | 28 ft | 9 kts | 239° |
| 2026-04-16 14:54 | 35.56082 | 139.78683 | 27 ft | 10 kts | 226° |
| 2026-04-16 14:54 | 35.56019 | 139.78677 | 26 ft | 10 kts | 153° |
| 2026-04-16 14:54 | 35.55960 | 139.78719 | 27 ft | 10 kts | 150° |
| 2026-04-16 14:55 | 35.55902 | 139.78761 | 27 ft | 10 kts | 150° |
| 2026-04-16 14:55 | 35.55843 | 139.78803 | 27 ft | 10 kts | 149° |
| 2026-04-16 14:55 | 35.55784 | 139.78846 | 28 ft | 10 kts | 149° |
| 2026-04-16 14:55 | 35.55725 | 139.78888 | 29 ft | 10 kts | 150° |
| 2026-04-16 14:56 | 35.55667 | 139.78930 | 30 ft | 10 kts | 149° |
| 2026-04-16 14:56 | 35.55608 | 139.78972 | 30 ft | 10 kts | 149° |
| 2026-04-16 14:56 | 35.55549 | 139.79014 | 30 ft | 10 kts | 150° |
| 2026-04-16 14:56 | 35.55487 | 139.79046 | 30 ft | 10 kts | 175° |
| 2026-04-16 14:57 | 35.55431 | 139.79006 | 31 ft | 10 kts | 238° |
| 2026-04-16 14:57 | 35.55389 | 139.78942 | 32 ft | 10 kts | 208° |
| 2026-04-16 14:57 | 35.55324 | 139.78950 | 32 ft | 10 kts | 151° |
| 2026-04-16 14:57 | 35.55310 | 139.78957 | 32 ft | 2 kts | 166° |
| 2026-04-16 14:58 | 35.55297 | 139.78949 | 32 ft | 2 kts | 214° |
| 2026-04-16 14:58 | 35.55278 | 139.78900 | 31 ft | 4 kts | 244° |
| 2026-04-16 14:58 | 35.55268 | 139.78877 | 32 ft | 0 kts | 240° |